Date,TemperatureHighF,TemperatureAvgF,TemperatureLowF,DewpointHighF,DewpointAvgF,DewpointLowF,HumidityHigh,HumidityAvg,HumidityLow,PressureMaxIn,PressureMinIn,WindSpeedMaxMPH,WindSpeedAvgMPH,GustSpeedMaxMPH,PrecipitationSumIn
2013-4-1,36.0,35.0,34.4,27.8,27.1,25.8,74,73,70,29.85,29.84,12,10,13,0.00
2013-4-3,41.1,36.8,33.9,28.8,25.8,22.9,72,65,48,30.22,30.20,9,5,10,0.00
2013-4-4,43.2,37.4,30.8,32.6,29.5,26.1,89,74,57,30.22,30.19,16,8,24,0.00
2013-4-5,44.2,36.8,30.1,34.8,28.8,25.6,89,73,56,30.29,30.19,12,5,17,0.00
2013-4-6,48.7,37.9,27.9,33.1,29.4,24.8,88,73,52,30.33,30.21,15,6,17,0.00
2013-4-7,44.2,39.6,34.2,36.6,32.8,29.9,87,77,61,30.21,29.82,16,10,22,0.00
2013-4-8,43.8,40.9,38.4,35.5,34.1,32.3,85,77,67,29.81,29.52,22,16,27,0.00
2013-4-9,43.6,39.2,36.3,36.2,33.7,31.7,87,81,74,29.61,29.49,20,13,25,0.00
2013-4-10,45.6,41.2,35.2,42.2,38.2,32.6,93,89,83,29.63,29.48,12,8,14,0.01
2013-4-11,46.0,42.9,40.2,43.8,41.1,38.6,96,93,89,29.47,29.26,16,9,19,0.19
2013-4-12,49.1,42.1,38.3,42.4,39.6,36.2,97,91,76,29.68,29.27,12,4,12,0.01
2013-4-13,54.2,44.5,37.5,51.3,42.5,35.7,97,93,82,29.70,29.37,22,12,27,0.12
2013-4-14,57.1,52.8,47.6,51.2,47.5,44.3,95,83,71,29.51,29.38,32,22,40,0.11
2013-4-15,59.7,51.9,47.3,47.1,44.4,41.3,91,76,54,29.78,29.47,24,18,27,0.06
2013-4-16,55.6,50.5,45.7,45.6,38.5,31.0,84,65,40,29.90,29.44,30,21,35,0.02
2013-4-17,56.6,50.1,44.1,50.8,45.3,33.1,94,84,60,29.88,29.17,34,21,41,0.17
2013-4-18,52.4,46.3,42.4,44.0,41.5,38.8,91,84,69,30.07,29.22,31,20,37,0.35
2013-4-19,56.2,45.8,37.0,41.6,38.3,35.3,94,77,47,30.45,30.09,12,7,13,0.00
2013-4-20,55.9,47.9,39.5,42.3,39.3,35.0,89,73,54,30.46,30.20,17,10,24,0.00
2013-4-21,54.0,47.5,42.6,43.8,40.9,36.8,91,78,58,30.19,29.93,19,13,21,0.06
2013-4-22,59.0,49.3,41.7,52.5,44.2,38.2,94,83,63,29.95,29.79,22,15,32,0.01
2013-4-23,59.6,52.4,45.6,48.7,45.6,42.5,92,78,65,30.11,29.93,16,11,23,0.00
2013-4-24,54.6,51.2,44.5,51.3,47.8,43.0,95,88,76,30.25,30.00,17,10,22,0.14
2013-4-25,53.9,45.5,41.6,44.0,41.1,35.5,97,85,64,30.23,30.12,14,7,29,0.39
2013-4-26,49.3,42.4,34.6,38.4,34.9,29.9,92,76,51,30.17,30.03,23,13,35,0.01
2013-4-27,52.1,44.9,38.0,39.1,35.5,32.9,86,70,51,30.19,30.08,16,8,25,0.00
2013-4-28,51.8,45.7,39.3,45.9,39.6,34.5,95,79,66,30.11,29.83,19,14,33,0.03
2013-4-29,55.7,45.5,38.4,46.9,37.0,33.0,88,73,45,30.25,29.89,19,14,31,0.02
2013-4-30,52.4,44.6,34.8,39.6,36.1,32.7,93,74,47,30.36,30.25,10,5,14,0.00